createdAt,value
2018-05-18T00:01:15.189Z,5.67
2018-05-18T00:06:09.565Z,6.80
2018-05-18T00:11:03.936Z,6.70
2018-05-18T00:15:58.316Z,6.80
2018-05-18T00:20:52.664Z,6.20
2018-05-18T00:25:47.177Z,6.60
2018-05-18T00:30:41.950Z,6.20
2018-05-18T00:35:36.418Z,6.60
2018-05-18T00:40:31.074Z,5.40
2018-05-18T00:45:25.576Z,6.33
2018-05-18T00:50:20.140Z,5.97
2018-05-18T00:55:32.372Z,6.07
2018-05-18T01:00:26.712Z,5.73
2018-05-18T01:05:21.265Z,5.67
2018-05-18T01:10:16.450Z,6.23
2018-05-18T01:15:10.844Z,6.13
2018-05-18T01:20:05.202Z,6.00
2018-05-18T01:25:00.748Z,6.53
2018-05-18T01:29:55.155Z,5.73
2018-05-18T01:34:49.611Z,5.23
2018-05-18T01:39:44.001Z,7.13
2018-05-18T01:44:38.399Z,6.27
2018-05-18T01:49:32.802Z,7.50
2018-05-18T01:54:27.163Z,6.67
2018-05-18T01:59:21.555Z,6.77
2018-05-18T02:04:15.924Z,7.57
2018-05-18T02:09:10.334Z,6.80
2018-05-18T02:14:04.708Z,8.60
2018-05-18T02:18:59.098Z,8.37
2018-05-18T02:23:53.458Z,8.73
2018-05-18T02:28:47.869Z,9.07
2018-05-18T02:33:43.015Z,9.20
2018-05-18T02:38:37.403Z,9.20
2018-05-18T02:43:31.527Z,9.50
2018-05-18T02:48:25.915Z,9.77
2018-05-18T02:53:20.278Z,11.07
2018-05-18T02:58:15.431Z,11.30
2018-05-18T03:03:09.811Z,11.67
2018-05-18T03:08:04.915Z,12.33
2018-05-18T03:12:59.271Z,12.57
2018-05-18T03:17:53.635Z,12.00
2018-05-18T03:22:48.035Z,12.00
2018-05-18T03:27:43.220Z,11.37
2018-05-18T03:32:37.582Z,12.03
2018-05-18T03:37:32.111Z,12.17
2018-05-18T03:42:26.737Z,11.40
2018-05-18T03:47:21.904Z,11.37
2018-05-18T03:52:16.389Z,10.40
2018-05-18T03:57:11.026Z,9.33
2018-05-18T04:02:22.951Z,8.27
2018-05-18T04:07:34.630Z,8.03
2018-05-18T04:12:30.800Z,7.37
2018-05-18T04:17:25.360Z,7.63
2018-05-18T04:22:19.836Z,6.60
2018-05-18T04:27:14.252Z,5.77
2018-05-18T04:32:08.658Z,7.40
2018-05-18T04:37:03.222Z,5.70
2018-05-18T04:41:57.899Z,5.77
2018-05-18T04:46:52.320Z,6.30
2018-05-18T04:51:47.469Z,4.70
2018-05-18T04:56:42.092Z,4.43
2018-05-18T05:01:36.565Z,4.63
2018-05-18T05:06:31.204Z,6.00
2018-05-18T05:11:25.606Z,10.07
2018-05-18T05:16:20.634Z,13.07
2018-05-18T05:21:15.186Z,16.30
2018-05-18T05:26:10.394Z,18.43
2018-05-18T05:31:05.482Z,19.10
2018-05-18T05:36:00.856Z,17.83
2018-05-18T05:40:55.440Z,19.77
2018-05-18T05:45:50.020Z,17.93
2018-05-18T05:50:44.486Z,18.53
2018-05-18T05:55:39.070Z,13.80
2018-05-18T06:00:34.380Z,15.70
2018-05-18T06:05:28.808Z,13.20
2018-05-18T06:10:23.343Z,12.03
2018-05-18T06:15:17.881Z,10.60
2018-05-18T06:20:12.245Z,11.23
2018-05-18T06:25:06.672Z,12.00
2018-05-18T06:30:01.075Z,12.90
2018-05-18T06:34:56.159Z,10.93
2018-05-18T06:39:50.901Z,11.30
2018-05-18T06:44:45.230Z,6.43
2018-05-18T06:49:39.580Z,6.23
2018-05-18T06:54:34.138Z,5.60
2018-05-18T06:59:28.474Z,7.30
2018-05-18T07:04:23.601Z,5.43
2018-05-18T07:09:18.721Z,7.60
2018-05-18T07:14:13.166Z,9.63
2018-05-18T07:19:07.662Z,9.47
2018-05-18T07:24:01.807Z,9.77
2018-05-18T07:28:56.279Z,11.80
2018-05-18T07:33:50.774Z,12.60
2018-05-18T07:38:45.173Z,9.63
2018-05-18T07:43:40.381Z,10.27
2018-05-18T07:48:34.754Z,10.43
2018-05-18T07:53:29.904Z,9.20
2018-05-18T07:58:24.436Z,7.10
2018-05-18T08:03:19.036Z,8.13
2018-05-18T08:08:13.396Z,8.27
2018-05-18T08:13:08.554Z,6.77
2018-05-18T08:18:02.908Z,5.60
2018-05-18T08:22:57.255Z,5.73
2018-05-18T08:27:51.641Z,5.30
2018-05-18T08:32:46.048Z,6.97
2018-05-18T08:37:40.688Z,6.23
2018-05-18T08:42:35.515Z,5.60
2018-05-18T08:47:30.160Z,6.30
2018-05-18T08:52:25.760Z,5.50
2018-05-18T08:57:20.412Z,6.77
2018-05-18T09:02:15.048Z,6.47
2018-05-18T09:07:10.440Z,7.37
2018-05-18T09:12:05.840Z,7.10
2018-05-18T09:17:00.985Z,5.67
2018-05-18T09:21:55.756Z,4.40
2018-05-18T09:26:50.403Z,4.37
2018-05-18T09:31:45.099Z,4.83
2018-05-18T09:36:39.779Z,4.37
2018-05-18T09:41:34.410Z,4.13
2018-05-18T09:46:29.239Z,4.40
2018-05-18T09:51:24.054Z,4.50
2018-05-18T09:56:18.684Z,5.03
2018-05-18T10:01:13.338Z,4.00
2018-05-18T10:06:07.961Z,4.17
2018-05-18T10:11:02.449Z,4.70
2018-05-18T10:15:57.055Z,4.80
2018-05-18T10:20:51.509Z,5.73
2018-05-18T10:25:46.680Z,5.90
2018-05-18T10:30:41.138Z,5.13
2018-05-18T10:35:36.349Z,5.33
2018-05-18T10:40:30.896Z,5.13
2018-05-18T10:45:25.303Z,5.83
2018-05-18T10:50:20.144Z,4.93
2018-05-18T10:55:14.734Z,5.27
2018-05-18T11:00:09.091Z,4.90
2018-05-18T11:05:04.224Z,5.33
2018-05-18T11:09:59.364Z,5.37
2018-05-18T11:14:53.794Z,5.60
2018-05-18T11:19:48.173Z,5.50
2018-05-18T11:24:42.551Z,5.63
2018-05-18T11:29:37.677Z,5.33
2018-05-18T11:34:32.931Z,4.73
2018-05-18T11:39:27.308Z,5.03
2018-05-18T11:44:21.668Z,5.00
2018-05-18T11:49:17.137Z,4.97
2018-05-18T11:54:12.315Z,5.07
2018-05-18T11:59:06.689Z,4.90
2018-05-18T12:04:01.085Z,4.83
2018-05-18T12:08:55.569Z,5.73
2018-05-18T12:13:50.244Z,5.53
2018-05-18T12:18:44.619Z,4.83
2018-05-18T12:23:39.031Z,4.83
2018-05-18T12:28:33.407Z,5.03
2018-05-18T12:33:27.828Z,5.03
2018-05-18T12:38:22.354Z,5.10
2018-05-18T12:43:16.901Z,4.93
2018-05-18T12:48:12.130Z,5.27
2018-05-18T12:53:09.206Z,5.00
2018-05-18T12:58:03.674Z,5.43
2018-05-18T13:02:58.097Z,5.07
2018-05-18T13:07:53.477Z,4.90
2018-05-18T13:12:48.138Z,5.00
2018-05-18T13:17:42.593Z,5.60
2018-05-18T13:22:36.960Z,5.53
2018-05-18T13:27:31.567Z,6.70
2018-05-18T13:32:25.935Z,6.03
2018-05-18T13:37:20.356Z,5.47
2018-05-18T13:42:15.540Z,5.27
2018-05-18T13:47:09.914Z,5.00
2018-05-18T13:52:04.288Z,4.80
2018-05-18T13:56:58.777Z,5.63
2018-05-18T14:01:54.024Z,5.00
2018-05-18T14:06:48.364Z,5.03
2018-05-18T14:11:42.776Z,4.93
2018-05-18T14:16:38.176Z,6.13
2018-05-18T14:21:32.548Z,5.53
2018-05-18T14:26:27.748Z,5.20
2018-05-18T14:31:22.251Z,5.97
2018-05-18T14:36:16.608Z,5.17
2018-05-18T14:41:10.963Z,5.00
2018-05-18T14:46:06.232Z,5.40
2018-05-18T14:51:00.686Z,5.63
2018-05-18T14:55:55.876Z,6.37
2018-05-18T15:00:50.220Z,5.33
2018-05-18T15:05:45.432Z,5.50
2018-05-18T15:10:40.012Z,5.87
2018-05-18T15:15:34.498Z,7.33
2018-05-18T15:20:28.885Z,6.37
2018-05-18T15:25:23.257Z,6.03
2018-05-18T15:30:18.402Z,5.27
2018-05-18T15:35:12.742Z,6.07
2018-05-18T15:40:07.122Z,5.67
2018-05-18T15:45:01.492Z,5.67
2018-05-18T15:49:56.635Z,5.63
2018-05-18T15:54:51.167Z,5.57
2018-05-18T15:59:45.543Z,5.03
2018-05-18T16:04:39.974Z,5.27
2018-05-18T16:09:34.318Z,5.07
2018-05-18T16:14:29.445Z,5.00
2018-05-18T16:19:24.726Z,5.07
2018-05-18T16:24:19.202Z,4.53
2018-05-18T16:29:13.590Z,5.97
2018-05-18T16:34:08.361Z,5.73
2018-05-18T16:39:02.524Z,4.37
2018-05-18T16:43:56.910Z,5.20
2018-05-18T16:48:51.314Z,4.47
2018-05-18T16:53:46.047Z,4.47
2018-05-18T16:58:40.448Z,4.23
2018-05-18T17:03:34.867Z,4.73
2018-05-18T17:08:29.281Z,4.50
2018-05-18T17:13:23.759Z,5.70
2018-05-18T17:18:18.399Z,4.77
2018-05-18T17:23:12.813Z,4.63
2018-05-18T17:28:07.203Z,4.93
2018-05-18T17:33:01.594Z,4.50
2018-05-18T17:37:56.133Z,4.43
2018-05-18T17:42:51.296Z,4.33
2018-05-18T17:47:45.636Z,4.40
2018-05-18T17:52:40.042Z,4.67
2018-05-18T17:57:34.516Z,4.37
2018-05-18T18:02:29.058Z,4.60
2018-05-18T18:07:23.411Z,4.37
2018-05-18T18:12:17.969Z,4.17
2018-05-18T18:17:12.472Z,4.30
2018-05-18T18:22:06.865Z,4.70
2018-05-18T18:27:01.248Z,4.57
2018-05-18T18:31:55.768Z,4.70
2018-05-18T18:36:50.140Z,5.17
2018-05-18T18:41:44.512Z,4.70
2018-05-18T18:46:39.671Z,4.80
2018-05-18T18:51:34.036Z,4.63
2018-05-18T18:56:29.199Z,5.23
2018-05-18T19:01:23.581Z,4.77
2018-05-18T19:06:18.017Z,5.77
2018-05-18T19:11:12.418Z,5.93
2018-05-18T19:16:06.926Z,5.47
2018-05-18T19:21:01.389Z,5.87
2018-05-18T19:25:56.065Z,5.53
2018-05-18T19:30:50.617Z,5.97
2018-05-18T19:35:44.971Z,5.70
2018-05-18T19:40:39.413Z,6.93
2018-05-18T19:45:33.970Z,7.10
2018-05-18T19:50:28.711Z,6.17
2018-05-18T19:55:24.030Z,6.13
2018-05-18T20:00:19.463Z,6.03
2018-05-18T20:05:14.710Z,6.50
2018-05-18T20:10:11.546Z,6.73
2018-05-18T20:15:06.047Z,6.33
2018-05-18T20:20:00.401Z,5.93
2018-05-18T20:24:55.097Z,6.07
2018-05-18T20:29:49.723Z,5.77
2018-05-18T20:34:44.092Z,5.90
2018-05-18T20:39:39.246Z,6.30
2018-05-18T20:44:33.618Z,5.57
2018-05-18T20:49:28.053Z,6.20
2018-05-18T20:54:22.495Z,6.17
2018-05-18T20:59:17.101Z,6.93
2018-05-18T21:04:11.498Z,6.27
2018-05-18T21:09:05.730Z,6.67
2018-05-18T21:14:00.884Z,6.33
2018-05-18T21:18:55.247Z,6.17
2018-05-18T21:23:50.500Z,5.00
2018-05-18T21:28:44.851Z,6.13
2018-05-18T21:33:39.218Z,6.30
2018-05-18T21:38:33.584Z,5.80
2018-05-18T21:43:28.729Z,5.77
2018-05-18T21:48:23.384Z,6.47
2018-05-18T21:53:17.964Z,6.37
2018-05-18T21:58:12.360Z,4.90
2018-05-18T22:03:06.857Z,6.23
2018-05-18T22:08:01.445Z,5.57
2018-05-18T22:12:56.862Z,5.77
2018-05-18T22:17:52.055Z,5.90
2018-05-18T22:22:46.531Z,5.10
2018-05-18T22:27:40.934Z,4.83
2018-05-18T22:32:35.284Z,4.90
2018-05-18T22:37:29.668Z,4.87
2018-05-18T22:42:24.078Z,5.17
2018-05-18T22:47:18.745Z,5.23
2018-05-18T22:52:13.446Z,5.40
2018-05-18T22:57:07.820Z,4.60
2018-05-18T23:02:03.214Z,4.60
2018-05-18T23:06:57.599Z,4.77
2018-05-18T23:11:51.998Z,4.93
2018-05-18T23:16:46.359Z,5.43
2018-05-18T23:21:41.776Z,5.60
2018-05-18T23:26:36.901Z,5.40
2018-05-18T23:31:32.032Z,5.50
2018-05-18T23:36:27.186Z,6.30
2018-05-18T23:41:21.595Z,5.37
2018-05-18T23:46:16.106Z,5.90
2018-05-18T23:51:10.456Z,6.10
2018-05-18T23:56:05.617Z,6.13
